• Join FlightAware (Why Join?)
  • Login
  • US Flag 
07:24PM EDT


 

Airport Tracker/Info


-or-


 

Live Flight TrackerFlight Track Log ✈ DAL268 ✈ 02-Sep-2013 ✈ KJFK - LLBG / TLV

Flight Track Log - Related Links

Times and Time Zones

All times are in EDT time to prevent confusion due to time zone crossing. See the DAL268 flight status page for this flight to view local times or setup timezone preferences in your user account.

Time Position Orientation Groundspeed Altitude Reporting Facility
EDT Latitude Longitude Course Direction KTS MPH feet Rate Location/Type
12:15AM 40.6430 -73.7690 90° East 90 104  Level FlightAware
12:15AM 40.6330 -73.7770 211° Southwest 155 178 900 Level FlightAware
12:16AM 40.6160 -73.7910 212° Southwest 179 206 700 1,740 Climbing FlightAware
12:16AM 40.6040 -73.8000 210° Southwest 182 209 1,200 1,800 Climbing FlightAware
12:16AM 40.5890 -73.8110 209° Southwest 191 220 1,800 1,200 Climbing FlightAware
12:17AM 40.5710 -73.8210 203° Southwest 223 257 2,000 660 Climbing FlightAware
12:17AM 40.5550 -73.8230 185° South 243 280 2,200 900 Climbing FlightAware
12:17AM 40.5220 -73.8160 171° South 267 307 2,700 1,020 Climbing FlightAware
12:18AM 40.5100 -73.8080 153° Southeast 279 321 2,900 960 Climbing FlightAware
12:18AM 40.4960 -73.7940 143° Southeast 293 337 3,100 1,380 Climbing FlightAware
12:18AM 40.4790 -73.7640 127° Southeast 303 349 3,700 1,860 Climbing FlightAware
12:18AM 40.4740 -73.7500 115° Southeast 307 353 4,000 1,860 Climbing FlightAware
12:18AM 40.4700 -73.7360 111° Southeast 309 356 4,200 1,860 Climbing FlightAware
12:19AM 40.4680 -73.7210 100° East 311 358 4,500 1,980 Climbing FlightAware
12:19AM 40.4790 -73.6670 75° East 311 358 5,400 1,980 Climbing FlightAware
12:19AM 40.4860 -73.6560 50° Northeast 307 353 5,700 2,460 Climbing FlightAware
12:19AM 40.4910 -73.6510 37° Northeast 305 351 5,900 2,400 Climbing FlightAware
12:19AM 40.4980 -73.6440 37° Northeast 305 351 6,100 2,220 Climbing FlightAware
12:20AM 40.5200 -73.6280 29° Northeast 305 351 6,800 2,220 Climbing FlightAware
12:20AM 40.5430 -73.6120 28° Northeast 308 354 7,500 2,100 Climbing FlightAware
12:20AM 40.5580 -73.6010 29° Northeast 311 358 7,900 1,920 Climbing FlightAware
12:21AM 40.5910 -73.5810 25° Northeast 315 362 8,700 1,920 Climbing FlightAware
12:21AM 40.6080 -73.5720 22° Northeast 316 364 9,100 1,800 Climbing FlightAware
12:21AM 40.6360 -73.5570 22° Northeast 322 371 9,700 1,620 Climbing FlightAware
12:22AM 40.6890 -73.5280 23° Northeast 337 388 10,700 1,380 Climbing FlightAware
12:22AM 40.7350 -73.5010 24° Northeast 359 413 11,300 1,020 Climbing FlightAware
12:23AM 40.7940 -73.4680 23° Northeast 386 444 11,900 1,140 Climbing FlightAware
12:23AM 40.8540 -73.4350 23° Northeast 409 471 12,700 1,560 Climbing FlightAware
12:24AM 40.9120 -73.4030 23° Northeast 418 481 13,700 1,920 Climbing FlightAware
12:25AM 40.9770 -73.3660 23° Northeast 427 491 14,900 1,920 Climbing FlightAware
12:25AM 41.0440 -73.3290 23° Northeast 437 503 16,000 1,800 Climbing FlightAware
12:26AM 41.1100 -73.2920 23° Northeast 447 514 17,100 1,680 Climbing FlightAware
12:26AM 41.1730 -73.2570 23° Northeast 455 524 18,000 1,620 Climbing FlightAware
12:27AM 41.2450 -73.2160 23° Northeast 463 533 19,000 1,560 Climbing FlightAware
12:28AM 41.3130 -73.1770 23° Northeast 469 540 19,900 1,380 Climbing FlightAware
12:28AM 41.3560 -73.1490 26° Northeast 482 555 20,300 1,260 Climbing FlightAware
12:28AM 41.4210 -73.0800 39° Northeast 493 567 21,100 1,320 Climbing FlightAware
12:29AM 41.4720 -73.0130 45° Northeast 499 574 21,800 1,500 Climbing FlightAware
12:30AM 41.5300 -72.9320 46° Northeast 505 581 22,800 1,500 Climbing FlightAware
12:30AM 41.5860 -72.8530 47° Northeast 512 589 23,600 1,260 Climbing FlightAware
12:31AM 41.6470 -72.7670 46° Northeast 519 597 24,300 1,140 Climbing FlightAware
12:31AM 41.6960 -72.6960 47° Northeast 522 601 24,900 1,080 Climbing FlightAware
12:32AM 41.7560 -72.6100 47° Northeast 530 610 25,600 1,080 Climbing FlightAware
12:32AM 41.8130 -72.5280 47° Northeast 535 616 26,200 1,080 Climbing FlightAware
12:33AM 41.8790 -72.4330 47° Northeast 539 620 26,900 1,020 Climbing FlightAware
12:34AM 41.9390 -72.3470 47° Northeast 544 626 27,500 900 Climbing FlightAware
12:34AM 41.9980 -72.2620 47° Northeast 550 633 28,000 840 Climbing FlightAware
12:35AM 42.0550 -72.1790 47° Northeast 550 633 28,500 1,080 Climbing FlightAware
12:35AM 42.1190 -72.0870 47° Northeast 550 633 29,300 1,320 Climbing FlightAware
12:36AM 42.1800 -71.9980 47° Northeast 552 635 30,100 1,320 Climbing FlightAware
12:37AM 42.2410 -71.9070 48° Northeast 547 629 30,900 720 Climbing FlightAware
12:37AM 42.2990 -71.8210 48° Northeast 550 633 31,000 60 Climbing FlightAware
12:38AM 42.3610 -71.7300 47° Northeast 548 631 31,000  Level FlightAware
12:38AM 42.4200 -71.6440 47° Northeast 548 631 31,000  Level FlightAware
12:39AM 42.4800 -71.5550 48° Northeast 548 631 31,000  Level FlightAware
12:39AM 42.5390 -71.4660 48° Northeast 548 631 31,000  Level FlightAware
12:40AM 42.6010 -71.3710 48° Northeast 549 632 31,000  Level FlightAware
12:41AM 42.6590 -71.2840 48° Northeast 551 634 31,000  Level FlightAware
12:41AM 42.7170 -71.1960 48° Northeast 552 635 31,000  Level FlightAware
12:42AM 42.7800 -71.1000 48° Northeast 554 638 31,000  Level FlightAware
12:42AM 42.8390 -71.0120 48° Northeast 553 636 31,000  Level FlightAware
12:43AM 42.8990 -70.9210 48° Northeast 553 636 31,000  Level FlightAware
12:44AM 42.9570 -70.8330 48° Northeast 553 636 31,000  Level FlightAware
12:44AM 43.0170 -70.7390 49° Northeast 554 638 31,000  Level FlightAware
12:45AM 43.0730 -70.6520 49° Northeast 554 638 31,000  Level FlightAware
12:45AM 43.1320 -70.5630 48° Northeast 553 636 31,000  Level FlightAware
12:46AM 43.1990 -70.4590 49° Northeast 547 629 31,000  Level FlightAware
12:47AM 43.2690 -70.3480 49° Northeast 545 627 31,000  Level FlightAware
12:47AM 43.3230 -70.2650 48° Northeast 545 627 31,000  Level FlightAware
12:48AM 43.4020 -70.1410 49° Northeast 545 627 31,000  Level FlightAware
12:49AM 43.4560 -70.0570 48° Northeast 545 627 31,000  Level FlightAware
12:49AM 43.5060 -69.9760 50° Northeast 545 627 31,000  Level FlightAware
12:50AM 43.5570 -69.8960 49° Northeast 545 627 31,000  Level FlightAware
12:50AM 43.6080 -69.8160 49° Northeast 545 627 31,000  Level FlightAware
12:51AM 43.6580 -69.7350 50° Northeast 545 627 31,000  Level FlightAware
12:52AM 43.7090 -69.6550 49° Northeast 545 627 31,000  Level FlightAware
12:52AM 43.7590 -69.5740 49° Northeast 545 627 31,000  Level FlightAware
12:53AM 43.8100 -69.4930 49° Northeast 545 627 31,000  Level FlightAware
12:53AM 43.8610 -69.4130 49° Northeast 545 627 31,000  Level FlightAware
12:54AM 43.9110 -69.3320 49° Northeast 545 627 31,000  Level FlightAware
12:55AM 44.0660 -69.0820 49° Northeast 544 626 31,000  Level FlightAware
12:55AM 44.1210 -68.9910 50° Northeast 544 626 31,000  Level FlightAware
12:56AM 44.1780 -68.9000 49° Northeast 544 626 31,000  Level FlightAware
12:56AM 44.2420 -68.7940 50° Northeast 544 626 31,000  Level FlightAware
12:57AM 44.2940 -68.7080 50° Northeast 543 625 31,000  Level FlightAware
12:58AM 44.3500 -68.6140 50° Northeast 543 625 31,000  Level FlightAware
12:58AM 44.4100 -68.5180 49° Northeast 541 623 31,000  Level FlightAware
12:59AM 44.4710 -68.4130 51° Northeast 540 621 31,000  Level FlightAware
12:59AM 44.5220 -68.3280 50° Northeast 537 618 31,000  Level FlightAware
01:00AM 44.5830 -68.2270 50° Northeast 533 613 31,000  Level FlightAware
01:00AM 44.6310 -68.1470 50° Northeast 534 615 31,000  Level FlightAware
01:01AM 44.6880 -68.0510 50° Northeast 535 616 31,000  Level FlightAware
01:02AM 44.7440 -67.9550 51° Northeast 536 617 31,000  Level FlightAware
01:02AM 44.8010 -67.8570 51° Northeast 539 620 31,000  Level FlightAware
01:03AM 44.8570 -67.7590 51° Northeast 541 623 31,000  Level FlightAware
01:03AM 44.9040 -67.6810 50° Northeast 534 615 31,000  Level FlightAware
01:04AM 44.9600 -67.5870 50° Northeast 532 612 31,000  Level FlightAware
01:05AM 45.0160 -67.4960 49° Northeast 537 618 31,000  Level FlightAware
01:05AM 45.0710 -67.3980 52° Northeast 539 620 31,000  Level FlightAware
01:06AM 45.1260 -67.3050 50° Northeast 540 621 31,000  Level FlightAware
01:06AM 45.1820 -67.2060 51° Northeast 540 621 31,000  Level FlightAware
01:07AM 45.2440 -67.0990 51° Northeast 541 623 31,000  Level FlightAware
01:07AM 45.2920 -67.0160 51° Northeast 541 623 31,000  Level FlightAware
01:08AM 45.3460 -66.9190 52° Northeast 540 621 31,000  Level FlightAware
01:09AM 45.4100 -66.8060 51° Northeast 541 623 31,000  Level FlightAware
01:09AM 45.4560 -66.7250 51° Northeast 542 624 31,000  Level FlightAware
01:10AM 45.5140 -66.6220 51° Northeast 544 626 31,000  Level FlightAware
01:10AM 45.5740 -66.5150 51° Northeast 546 628 31,000  Level FlightAware
01:11AM 45.6220 -66.4280 52° Northeast 547 629 31,000  Level FlightAware
01:12AM 45.7020 -66.2870 51° Northeast 548 631 31,000  Level FlightAware
01:12AM 45.7490 -66.2020 52° Northeast 546 628 31,000  Level FlightAware
01:13AM 45.8110 -66.0890 52° Northeast 543 625 31,000  Level FlightAware
01:14AM 45.8660 -65.9900 51° Northeast 542 624 31,000  Level FlightAware
01:14AM 45.9120 -65.9060 52° Northeast 541 623 31,000  Level FlightAware
01:15AM 45.9900 -65.7650 51° Northeast 536 617 31,000  Level FlightAware
01:16AM 46.0380 -65.6760 52° Northeast 536 617 31,000  Level FlightAware
01:16AM 46.0850 -65.5900 52° Northeast 536 617 31,000  Level FlightAware
01:17AM 46.1750 -65.4250 52° Northeast 542 624 31,000  Level FlightAware
01:18AM 46.2250 -65.3370 51° Northeast 542 624 31,000  Level FlightAware
01:18AM 46.2730 -65.2500 51° Northeast 542 624 31,000  Level FlightAware
01:19AM 46.3220 -65.1640 50° Northeast 542 624 31,000  Level FlightAware
01:19AM 46.3700 -65.0780 51° Northeast 542 624 31,000  Level FlightAware
01:20AM 46.4180 -64.9910 51° Northeast 542 624 31,000  Level FlightAware
01:21AM 46.4660 -64.9050 51° Northeast 542 624 31,000  Level FlightAware
01:21AM 46.5150 -64.8180 51° Northeast 542 624 31,000  Level FlightAware
01:22AM 46.5640 -64.7290 51° Northeast 542 624 31,000  Level FlightAware
01:22AM 46.6140 -64.6400 51° Northeast 542 624 31,000  Level FlightAware
01:23AM 46.6620 -64.5530 51° Northeast 542 624 31,000  Level FlightAware
01:24AM 46.7100 -64.4660 51° Northeast 542 624 31,000  Level FlightAware
01:24AM 46.7590 -64.3790 51° Northeast 542 624 31,000  Level FlightAware
01:25AM 46.8070 -64.2920 51° Northeast 542 624 31,000  Level FlightAware
01:25AM 46.8550 -64.2050 51° Northeast 542 624 31,000  Level FlightAware
01:26AM 46.9040 -64.1170 51° Northeast 542 624 31,000  Level FlightAware
01:27AM 47.0667 -63.7167 51° Northeast 540 621 31,000  Level Moncton Center
01:28AM 47.1500 -63.5333 56° Northeast 540 621 31,000  Level Moncton Center
01:29AM 47.2333 -63.3667 54° Northeast 530 610 31,000  Level Moncton Center
01:30AM 47.3333 -63.1833 51° Northeast 530 610 31,000  Level Moncton Center
01:31AM 47.4000 -62.9833 64° Northeast 530 610 31,000  Level Moncton Center
01:32AM 47.4833 -62.8167 53° Northeast 530 610 31,000  Level Moncton Center
01:33AM 47.5667 -62.6667 50° Northeast 530 610 31,000  Level Moncton Center
01:34AM 47.6667 -62.4500 56° Northeast 530 610 31,000  Level Moncton Center
01:35AM 47.7500 -62.2833 53° Northeast 530 610 31,000  Level Moncton Center
01:36AM 47.8500 -62.1000 51° Northeast 530 610 31,000  Level Moncton Center
01:37AM 47.9167 -61.9167 61° Northeast 540 621 31,000  Level Moncton Center
01:38AM 48.0167 -61.7500 48° Northeast 540 621 31,000  Level Moncton Center
01:39AM 48.1000 -61.5667 56° Northeast 540 621 31,000  Level Moncton Center
01:40AM 48.1833 -61.3667 58° Northeast 540 621 31,000  Level Moncton Center
01:41AM 48.2667 -61.2000 53° Northeast 540 621 31,000  Level Moncton Center
01:42AM 48.3500 -61.0000 58° Northeast 540 621 31,000  Level Moncton Center
01:43AM 48.4500 -60.8167 51° Northeast 540 621 31,000  Level Moncton Center
01:48AM 48.8910 -59.8690 51° Northeast 538 619 31,000  Level FlightAware
01:49AM 48.9400 -59.7600 56° Northeast 538 619 31,000  Level FlightAware
01:49AM 48.9820 -59.6640 56° Northeast 538 619 31,000  Level FlightAware
01:50AM 49.0390 -59.5300 57° Northeast 537 618 31,000  Level FlightAware
01:50AM 49.0850 -59.4260 56° Northeast 536 617 31,000  Level FlightAware
01:51AM 49.1380 -59.3030 57° Northeast 537 618 31,000  Level FlightAware
01:51AM 49.1850 -59.1920 57° Northeast 536 617 31,000  Level FlightAware
01:52AM 49.2330 -59.0810 56° Northeast 536 617 31,000  Level FlightAware
01:53AM 49.2810 -58.9700 56° Northeast 535 616 31,000  Level FlightAware
01:53AM 49.3290 -58.8560 57° Northeast 535 616 31,000  Level FlightAware
01:54AM 49.3740 -58.7480 57° Northeast 535 616 31,000  Level FlightAware
01:54AM 49.4220 -58.6330 57° Northeast 534 615 31,000  Level FlightAware
01:55AM 49.4680 -58.5200 58° Northeast 535 616 31,000  Level FlightAware
01:56AM 49.5120 -58.4050 59° Northeast 536 617 31,000  Level FlightAware
01:56AM 49.5500 -58.2980 61° Northeast 537 618 31,000 60 Level FlightAware
01:57AM 49.5940 -58.1700 62° Northeast 538 619 31,100 240 Climbing FlightAware
01:57AM 49.6340 -58.0540 62° Northeast 545 627 31,300 300 Climbing FlightAware
01:58AM 49.6770 -57.9290 62° Northeast 549 632 31,500 420 Climbing FlightAware
01:58AM 49.7190 -57.8080 62° Northeast 552 635 31,800 420 Climbing FlightAware
01:59AM 49.7590 -57.6860 63° Northeast 552 635 32,000 300 Climbing FlightAware
02:00AM 49.8010 -57.5630 62° Northeast 552 635 32,200 300 Climbing FlightAware
02:00AM 49.8420 -57.4410 62° Northeast 552 635 32,400 300 Climbing FlightAware
02:01AM 49.8820 -57.3220 62° Northeast 550 633 32,600 420 Climbing FlightAware
02:01AM 49.9230 -57.2000 62° Northeast 549 632 32,900 300 Climbing FlightAware
02:02AM 49.9650 -57.0730 63° Northeast 554 638 33,000 60 Climbing FlightAware
02:03AM 50.0060 -56.9500 63° Northeast 553 636 33,000  Level FlightAware
02:03AM 50.0470 -56.8260 63° Northeast 553 636 33,000  Level FlightAware
02:04AM 50.0870 -56.7020 63° Northeast 552 635 33,000  Level FlightAware
02:04AM 50.1270 -56.5780 63° Northeast 552 635 33,000  Level FlightAware
02:05AM 50.1690 -56.4540 62° Northeast 553 636 33,000  Level FlightAware
02:05AM 50.2090 -56.3290 63° Northeast 554 638 33,000  Level FlightAware
02:06AM 50.2470 -56.2110 63° Northeast 555 639 33,000  Level FlightAware
02:07AM 50.2860 -56.0860 64° Northeast 554 638 33,000  Level FlightAware
02:07AM 50.3290 -55.9530 63° Northeast 554 638 33,000  Level FlightAware
02:08AM 50.3680 -55.8310 63° Northeast 555 639 33,000  Level FlightAware
02:08AM 50.4080 -55.7010 64° Northeast 553 636 33,000  Level FlightAware
02:09AM 50.4470 -55.5790 63° Northeast 553 636 33,000  Level FlightAware
02:10AM 50.4870 -55.4490 64° Northeast 553 636 33,000  Level FlightAware
02:10AM 50.5260 -55.3230 64° Northeast 554 638 33,000  Level FlightAware
02:11AM 50.5660 -55.1960 64° Northeast 555 639 33,000  Level FlightAware
02:11AM 50.6040 -55.0730 64° Northeast 554 638 33,000  Level FlightAware
02:12AM 50.6530 -54.9090 65° Northeast 553 636 33,000  Level FlightAware
02:13AM 50.6930 -54.7790 64° Northeast 551 634 33,000  Level FlightAware
02:13AM 50.7370 -54.6340 64° Northeast 551 634 33,000  Level FlightAware
02:14AM 50.7830 -54.4770 65° Northeast 549 632 33,000  Level FlightAware
02:15AM 50.8260 -54.3330 65° Northeast 548 631 33,000  Level FlightAware
02:15AM 50.8620 -54.2160 64° Northeast 548 631 33,000  Level FlightAware
02:16AM 50.8960 -54.1060 64° Northeast 548 631 33,000  Level FlightAware
02:16AM 50.9300 -53.9950 64° Northeast 548 631 33,000  Level FlightAware
02:17AM 50.9640 -53.8840 64° Northeast 548 631 33,000  Level FlightAware
02:17AM 51.0040 -53.7250 68° East 33,000  Level FlightAware
02:18AM 51.0500 -53.5000 68° East 550 633 33,000  Level Gander Center
02:19AM 51.0667 -53.4000 75° East 550 633 33,000  Level Gander Center
02:20AM 51.1333 -53.1667 65° Northeast 540 621 33,000  Level Moncton Center
02:21AM 51.1833 -52.9333 71° East 550 633 33,000  Level Moncton Center
02:22AM 51.2333 -52.7333 68° East 540 621 33,000  Level Moncton Center
02:23AM 51.3167 -52.5000 60° Northeast 550 633 33,000  Level Moncton Center
02:24AM 51.3500 -52.3000 75° East 550 633 33,000  Level Moncton Center
02:25AM 51.4333 -52.0333 63° Northeast 550 633 33,000  Level Moncton Center
02:26AM 51.4833 -51.8667 64° Northeast 550 633 33,000  Level Moncton Center
02:27AM 51.5667 -51.5833 65° Northeast 560 644 33,000  Level Gander Center
02:28AM 51.6167 -51.3500 71° East 560 644 33,000  Level Gander Center
02:29AM 51.6667 -51.1167 71° East 560 644 33,000  Level Gander Center
02:30AM 51.7333 -50.8833 65° Northeast 560 644 33,000  Level Gander Center
02:31AM 51.8000 -50.6500 65° Northeast 560 644 33,000  Level Gander Center
02:32AM 51.8667 -50.4167 65° Northeast 560 644 33,000  Level Gander Center
02:34AM 51.9524 -50.1495 62° Northeast  Level FlightAware Approximate
02:41AM 52.1985 -48.5535 77° East  Level FlightAware Approximate
02:42AM 52.2285 -48.3223 78° East  Level FlightAware Approximate
02:43AM 52.2579 -48.0908 78° East  Level FlightAware Approximate
02:44AM 52.2869 -47.8590 78° East  Level FlightAware Approximate
02:45AM 52.3155 -47.6269 79° East  Level FlightAware Approximate
02:46AM 52.3436 -47.3945 79° East  Level FlightAware Approximate
02:47AM 52.3713 -47.1618 79° East  Level FlightAware Approximate
02:48AM 52.3985 -46.9288 79° East  Level FlightAware Approximate
02:49AM 52.4252 -46.6956 79° East  Level FlightAware Approximate
02:50AM 52.4515 -46.4620 79° East  Level FlightAware Approximate
02:51AM 52.4773 -46.2282 80° East  Level FlightAware Approximate
02:52AM 52.5027 -45.9941 80° East  Level FlightAware Approximate
02:53AM 52.5276 -45.7598 80° East  Level FlightAware Approximate
02:54AM 52.5520 -45.5252 80° East  Level FlightAware Approximate
02:55AM 52.5760 -45.2903 80° East  Level FlightAware Approximate
02:56AM 52.5995 -45.0551 81° East  Level FlightAware Approximate
02:57AM 52.6231 -44.8199 81° East  Level FlightAware Approximate
02:58AM 52.6462 -44.5844 81° East  Level FlightAware Approximate
02:59AM 52.6689 -44.3487 81° East  Level FlightAware Approximate
03:00AM 52.6911 -44.1127 81° East  Level FlightAware Approximate
03:01AM 52.7128 -43.8765 81° East  Level FlightAware Approximate
03:02AM 52.7341 -43.6400 81° East  Level FlightAware Approximate
03:03AM 52.7549 -43.4034 82° East  Level FlightAware Approximate
03:04AM 52.7752 -43.1665 82° East  Level FlightAware Approximate
03:05AM 52.7950 -42.9293 82° East  Level FlightAware Approximate
03:06AM 52.8144 -42.6920 82° East  Level FlightAware Approximate
03:07AM 52.8333 -42.4545 82° East  Level FlightAware Approximate
03:08AM 52.8517 -42.2167 83° East  Level FlightAware Approximate
03:09AM 52.8697 -41.9788 83° East  Level FlightAware Approximate
03:10AM 52.8871 -41.7406 83° East  Level FlightAware Approximate
03:11AM 52.9041 -41.5023 83° East  Level FlightAware Approximate
03:12AM 52.9206 -41.2638 83° East  Level FlightAware Approximate
03:13AM 52.9367 -41.0251 84° East  Level FlightAware Approximate
03:14AM 52.9522 -40.7862 84° East  Level FlightAware Approximate
03:15AM 52.9673 -40.5472 84° East  Level FlightAware Approximate
03:16AM 52.9819 -40.3080 84° East  Level FlightAware Approximate
03:17AM 52.9960 -40.0686 84° East  Level FlightAware Approximate
03:18AM 53.0241 -39.8331 76° East  Level FlightAware Approximate
03:19AM 53.0575 -39.5984 77° East  Level FlightAware Approximate
03:20AM 53.0904 -39.3633 77° East  Level FlightAware Approximate
03:21AM 53.1229 -39.1278 77° East  Level FlightAware Approximate
03:22AM 53.1549 -38.8920 77° East  Level FlightAware Approximate
03:23AM 53.1864 -38.6559 77° East  Level FlightAware Approximate
03:24AM 53.2175 -38.4194 78° East  Level FlightAware Approximate
03:25AM 53.2481 -38.1825 78° East  Level FlightAware Approximate
03:26AM 53.2783 -37.9454 78° East  Level FlightAware Approximate
03:27AM 53.3079 -37.7079 78° East  Level FlightAware Approximate
03:28AM 53.3371 -37.4700 78° East  Level FlightAware Approximate
03:29AM 53.3658 -37.2319 78° East  Level FlightAware Approximate
03:30AM 53.3941 -36.9934 79° East  Level FlightAware Approximate
03:31AM 53.4218 -36.7546 79° East  Level FlightAware Approximate
03:32AM 53.4491 -36.5155 79° East  Level FlightAware Approximate
03:33AM 53.4759 -36.2761 79° East  Level FlightAware Approximate
03:34AM 53.5023 -36.0364 79° East  Level FlightAware Approximate
03:35AM 53.5281 -35.7964 80° East  Level FlightAware Approximate
03:36AM 53.5535 -35.5561 80° East  Level FlightAware Approximate
03:37AM 53.5784 -35.3156 80° East  Level FlightAware Approximate
03:38AM 53.6028 -35.0747 80° East  Level FlightAware Approximate
03:39AM 53.6267 -34.8336 80° East  Level FlightAware Approximate
03:40AM 53.6502 -34.5922 81° East  Level FlightAware Approximate
03:41AM 53.6731 -34.3505 81° East  Level FlightAware Approximate
03:42AM 53.6956 -34.1086 81° East  Level FlightAware Approximate
03:43AM 53.7176 -33.8664 81° East  Level FlightAware Approximate
03:44AM 53.7391 -33.6240 81° East  Level FlightAware Approximate
03:45AM 53.7601 -33.3813 82° East  Level FlightAware Approximate
03:46AM 53.7806 -33.1384 82° East  Level FlightAware Approximate
03:47AM 53.8006 -32.8952 82° East  Level FlightAware Approximate
03:48AM 53.8201 -32.6519 82° East  Level FlightAware Approximate
03:49AM 53.8391 -32.4082 82° East  Level FlightAware Approximate
03:50AM 53.8577 -32.1644 83° East  Level FlightAware Approximate
03:51AM 53.8757 -31.9204 83° East  Level FlightAware Approximate
03:52AM 53.8933 -31.6761 83° East  Level FlightAware Approximate
03:53AM 53.9103 -31.4321 83° East  Level FlightAware Approximate
03:54AM 53.9268 -31.1879 83° East  Level FlightAware Approximate
03:55AM 53.9429 -30.9435 84° East  Level FlightAware Approximate
03:56AM 53.9584 -30.6989 84° East  Level FlightAware Approximate
03:57AM 53.9734 -30.4541 84° East  Level FlightAware Approximate
03:58AM 53.9880 -30.2092 84° East  Level FlightAware Approximate
03:59AM 54.0015 -29.9640 86° East  Level FlightAware Approximate
04:00AM 54.0114 -29.7182 86° East  Level FlightAware Approximate
04:01AM 54.0208 -29.4723 86° East  Level FlightAware Approximate
04:02AM 54.0297 -29.2263 86° East  Level FlightAware Approximate
04:03AM 54.0381 -28.9802 87° East  Level FlightAware Approximate
04:04AM 54.0460 -28.7341 87° East  Level FlightAware Approximate
04:05AM 54.0533 -28.4878 87° East  Level FlightAware Approximate
04:06AM 54.0602 -28.2414 87° East  Level FlightAware Approximate
04:07AM 54.0666 -27.9950 87° East  Level FlightAware Approximate
04:08AM 54.0725 -27.7484 88° East  Level FlightAware Approximate
04:09AM 54.0779 -27.5019 88° East  Level FlightAware Approximate
04:10AM 54.0827 -27.2552 88° East  Level FlightAware Approximate
04:11AM 54.0871 -27.0085 88° East  Level FlightAware Approximate
04:12AM 54.0910 -26.7618 88° East  Level FlightAware Approximate
04:13AM 54.0943 -26.5150 89° East  Level FlightAware Approximate
04:14AM 54.0971 -26.2681 89° East  Level FlightAware Approximate
04:15AM 54.0995 -26.0213 89° East  Level FlightAware Approximate
04:16AM 54.1013 -25.7744 89° East  Level FlightAware Approximate
04:17AM 54.1027 -25.5275 89° East  Level FlightAware Approximate
04:18AM 54.1035 -25.2806 90° East  Level FlightAware Approximate
04:19AM 54.1038 -25.0337 90° East  Level FlightAware Approximate
04:20AM 54.1036 -24.7867 90° East  Level FlightAware Approximate
04:21AM 54.1029 -24.5398 90° East  Level FlightAware Approximate
04:22AM 54.1017 -24.2929 90° East  Level FlightAware Approximate
04:23AM 54.1001 -24.0460 91° East  Level FlightAware Approximate
04:24AM 54.0978 -23.7992 91° East  Level FlightAware Approximate
04:25AM 54.0951 -23.5523 91° East  Level FlightAware Approximate
04:26AM 54.0919 -23.3055 91° East  Level FlightAware Approximate
04:27AM 54.0882 -23.0588 91° East  Level FlightAware Approximate
04:28AM 54.0840 -22.8120 92° East  Level FlightAware Approximate
04:29AM 54.0792 -22.5654 92° East  Level FlightAware Approximate
04:30AM 54.0740 -22.3183 92° East  Level FlightAware Approximate
04:31AM 54.0682 -22.0714 92° East  Level FlightAware Approximate
04:32AM 54.0620 -21.8245 92° East  Level FlightAware Approximate
04:33AM 54.0552 -21.5777 93° East  Level FlightAware Approximate
04:34AM 54.0480 -21.3310 93° East  Level FlightAware Approximate
04:35AM 54.0402 -21.0843 93° East  Level FlightAware Approximate
04:36AM 54.0319 -20.8378 93° East  Level FlightAware Approximate
04:37AM 54.0231 -20.5913 93° East  Level FlightAware Approximate
04:38AM 54.0139 -20.3450 94° East  Level FlightAware Approximate
04:39AM 54.0041 -20.0988 94° East  Level FlightAware Approximate
04:40AM 53.9913 -19.8530 96° East  Level FlightAware Approximate
04:41AM 53.9764 -19.6077 96° East  Level FlightAware Approximate
04:42AM 53.9609 -19.3625 96° East  Level FlightAware Approximate
04:43AM 53.9450 -19.1175 96° East  Level FlightAware Approximate
04:44AM 53.9286 -18.8728 96° East  Level FlightAware Approximate
04:45AM 53.9117 -18.6282 97° East  Level FlightAware Approximate
04:46AM 53.8942 -18.3838 97° East  Level FlightAware Approximate
04:47AM 53.8763 -18.1396 97° East  Level FlightAware Approximate
04:48AM 53.8579 -17.8957 97° East  Level FlightAware Approximate
04:49AM 53.8390 -17.6519 97° East  Level FlightAware Approximate
04:50AM 53.8196 -17.4084 98° East  Level FlightAware Approximate
04:50AM 53.8940 -14.4180 98° East 514 592 33,000  Level FlightAware
04:51AM 53.7997 -17.1651 98° East  Level FlightAware Approximate
04:51AM 53.8680 -14.2500 105° East 514 592 33,000  Level FlightAware
04:52AM 53.8460 -14.1060 104° East 514 592 33,000  Level FlightAware
04:52AM 53.8180 -13.9400 106° East 514 592 33,000  Level FlightAware
04:53AM 53.7990 -13.8190 105° East 513 590 33,000  Level FlightAware
04:53AM 53.7800 -13.6870 104° East 513 590 33,000  Level FlightAware
04:54AM 53.7520 -13.5300 107° East 507 583 33,000  Level FlightAware
04:55AM 53.7310 -13.4000 105° East 505 581 33,000  Level FlightAware
04:55AM 53.7080 -13.2630 106° East 504 580 33,000  Level FlightAware
04:56AM 53.6850 -13.1230 105° East 503 579 33,000  Level FlightAware
04:57AM 53.6570 -12.9610 106° East 503 579 33,000  Level FlightAware
04:57AM 53.6360 -12.8360 106° East 502 578 33,000 180 Level FlightAware
04:58AM 53.6040 -12.6490 106° East 497 572 33,300 420 Climbing FlightAware
04:59AM 53.5810 -12.5190 107° East 494 568 33,600 480 Climbing FlightAware
04:59AM 53.5580 -12.3860 106° East 494 568 33,900 480 Climbing FlightAware
05:00AM 53.5350 -12.2560 107° East 494 568 34,200 480 Climbing FlightAware
05:00AM 53.5120 -12.1230 106° East 497 572 34,500 480 Climbing FlightAware
05:01AM 53.4890 -11.9930 107° East 500 575 34,800 420 Climbing FlightAware
05:01AM 53.4660 -11.8670 107° East 499 574 35,000 120 Climbing FlightAware
05:02AM 53.4420 -11.7340 107° East 500 575 35,000  Level FlightAware
05:03AM 53.4180 -11.6040 107° East 501 577 35,000  Level FlightAware
05:03AM 53.3940 -11.4740 107° East 501 577 35,000  Level FlightAware
05:04AM 53.3700 -11.3450 107° East 501 577 35,000  Level FlightAware
05:04AM 53.3470 -11.2150 106° East 501 577 35,000  Level FlightAware
05:05AM 53.3220 -11.0860 108° East 501 577 35,000  Level FlightAware
05:06AM 53.2980 -10.9610 108° East 498 573 35,000  Level FlightAware
05:06AM 53.2730 -10.8280 107° East 500 575 35,000  Level FlightAware
05:07AM 53.2490 -10.6990 107° East 500 575 35,000  Level FlightAware
05:07AM 53.2230 -10.5700 109° East 499 574 35,000  Level FlightAware
05:08AM 53.1990 -10.4410 107° East 498 573 35,000  Level FlightAware
05:08AM 53.1740 -10.3130 108° East 498 573 35,000  Level FlightAware
05:09AM 53.1490 -10.1850 108° East 497 572 35,000  Level FlightAware
05:10AM 53.1240 -10.0610 109° East 496 571 35,000  Level FlightAware
05:10AM 53.0990 -9.9340 108° East 495 570 35,000  Level FlightAware
05:11AM 53.0720 -9.8030 109° East 495 570 35,000  Level FlightAware
05:11AM 53.0510 -9.6940 108° East 495 570 35,000  Level FlightAware
05:12AM 53.0250 -9.5680 109° East 498 573 35,000  Level FlightAware
05:13AM 52.9960 -9.4240 108° East 497 572 35,000  Level FlightAware
05:13AM 52.9740 -9.3190 109° East 497 572 35,000  Level FlightAware
05:14AM 52.9470 -9.1890 109° East 498 573 35,000  Level FlightAware
05:14AM 52.9210 -9.0630 109° East 498 573 35,000  Level FlightAware
05:15AM 52.8950 -8.9370 109° East 498 573 35,000  Level FlightAware
05:15AM 52.8680 -8.8110 109° East 497 572 35,000  Level FlightAware
05:16AM 52.8420 -8.6900 110° East 497 572 35,000  Level FlightAware
05:17AM 52.8150 -8.5610 110° East 497 572 35,000  Level FlightAware
05:17AM 52.8131 -8.5515 110° East 490 564 35,000  Level FlightAware UK
05:17AM 52.7905 -8.4436 110° East 488 562 35,000  Level FlightAware UK
05:17AM 52.7850 -8.4180 110° East 495 570 35,000  Level FlightAware
05:18AM 52.7610 -8.3110 110° East 493 567 35,000  Level FlightAware
05:18AM 52.7340 -8.1870 110° East 494 568 35,000  Level FlightAware
05:19AM 52.7070 -8.0620 110° East 495 570 35,000  Level FlightAware
05:19AM 52.6800 -7.9370 110° East 496 571 35,000  Level FlightAware
05:20AM 52.6520 -7.8120 110° East 497 572 35,000  Level FlightAware
05:20AM 52.6502 -7.8010 110° East 486 559 35,000  Level FlightAware UK
05:21AM 52.6263 -7.6941 110° East 488 562 35,000  Level FlightAware UK
05:21AM 52.6240 -7.6880 110° East 498 573 35,000  Level FlightAware
05:21AM 52.5960 -7.5620 110° East 500 575 35,000  Level FlightAware
05:22AM 52.5670 -7.4370 111° Southeast 503 579 35,000  Level FlightAware
05:22AM 52.5390 -7.3120 110° East 504 580 35,000  Level FlightAware
05:23AM 52.5100 -7.1830 110° East 504 580 35,000  Level FlightAware
05:24AM 52.4820 -7.0610 110° East 505 581 35,000  Level FlightAware
05:24AM 52.4802 -7.0494 110° East 490 564 35,000  Level FlightAware UK
05:24AM 52.4553 -6.9421 110° East 492 566 35,000  Level FlightAware UK
05:24AM 52.4500 -6.9220 110° East 504 580 35,000  Level FlightAware
05:25AM 52.4180 -6.7870 111° Southeast 504 580 35,000  Level FlightAware
05:26AM 52.3807 -6.6221 111° Southeast 488 562 35,000  Level FlightAware UK
05:26AM 52.3830 -6.6340 111° Southeast 501 577 35,000  Level FlightAware
05:26AM 52.3559 -6.5161 111° Southeast 486 559 35,000  Level FlightAware UK
05:26AM 52.3470 -6.4830 111° Southeast 500 575 35,000  Level FlightAware
05:27AM 52.3160 -6.3520 111° Southeast 500 575 35,000  Level FlightAware
05:27AM 52.2860 -6.2260 111° Southeast 500 575 35,000  Level FlightAware
05:28AM 52.2580 -6.1090 111° Southeast 501 577 35,000  Level FlightAware
05:29AM 52.2280 -5.9860 112° Southeast 501 577 35,000  Level FlightAware
05:29AM 52.1970 -5.8560 111° Southeast 502 578 35,000  Level FlightAware
05:30AM 52.1690 -5.7400 111° Southeast 503 579 35,000  Level FlightAware
05:30AM 52.1380 -5.6170 112° Southeast 504 580 35,000  Level FlightAware
05:31AM 52.1080 -5.4940 112° Southeast 505 581 35,000  Level FlightAware
05:31AM 52.0790 -5.3750 112° Southeast 505 581 35,000  Level FlightAware
05:32AM 52.0478 -5.2501 112° Southeast 490 564 35,000  Level FlightAware UK
05:32AM 52.0480 -5.2550 112° Southeast 506 582 35,000  Level FlightAware
05:33AM 52.0170 -5.1290 112° Southeast 506 582 35,000  Level FlightAware
05:33AM 51.9920 -4.9980 107° East 516 594 35,000  Level FlightAware
05:34AM 51.9779 -4.8531 107° East 494 568 35,000  Level FlightAware UK
05:34AM 51.9780 -4.8560 107° East 519 597 35,000  Level FlightAware
05:34AM 51.9687 -4.7376 107° East 494 568 35,000  Level FlightAware UK
05:34AM 51.9680 -4.7330 107° East 519 597 35,000  Level FlightAware
05:35AM 51.9580 -4.5980 97° East 518 596 35,000  Level FlightAware
05:36AM 51.9450 -4.4560 98° East 517 595 35,000  Level FlightAware
05:36AM 51.9327 -4.3105 98° East 517 595 35,000  Level FlightAware ADS-B
05:37AM 51.9230 -4.1960 98° East 517 595 35,000  Level FlightAware
05:37AM 51.9171 -4.1382 99° East 517 595 35,000  Level FlightAware ADS-B
05:38AM 51.9020 -3.9735 98° East 519 597 35,000  Level FlightAware ADS-B
05:38AM 51.8900 -3.8435 98° East 519 597 35,000  Level FlightAware ADS-B
05:39AM 51.8739 -3.6748 99° East 519 597 35,000  Level FlightAware ADS-B
05:40AM 51.8590 -3.5180 99° East 520 598 35,000  Level FlightAware
05:40AM 51.8490 -3.4180 99° East 520 598 35,000  Level FlightAware
05:41AM 51.8347 -3.2650 99° East 519 597 35,000  Level FlightAware ADS-B
05:41AM 51.8232 -3.1501 99° East 519 597 35,000  Level FlightAware ADS-B
05:42AM 51.8114 -3.0319 99° East 519 597 35,000  Level FlightAware ADS-B
05:42AM 51.7999 -2.9177 99° East 519 597 35,000  Level FlightAware ADS-B
05:43AM 51.7879 -2.7994 99° East 518 596 35,000  Level FlightAware ADS-B
05:43AM 51.7760 -2.6813 99° East 518 596 35,000  Level FlightAware ADS-B
05:44AM 51.7626 -2.5559 100° East 517 595 35,000  Level FlightAware ADS-B
05:44AM 51.7506 -2.4383 99° East 517 595 35,000  Level FlightAware ADS-B
05:45AM 51.7384 -2.3244 100° East 517 595 35,000  Level FlightAware ADS-B
05:46AM 51.7234 -2.1844 100° East 518 596 35,000  Level FlightAware ADS-B
05:46AM 51.7103 -2.0629 100° East 518 596 35,000  Level FlightAware ADS-B
05:47AM 51.6975 -1.9451 100° East 519 597 35,000  Level FlightAware ADS-B
05:47AM 51.6848 -1.8311 100° East 519 597 35,000  Level FlightAware ADS-B
05:48AM 51.6719 -1.7172 100° East 519 597 35,000  Level FlightAware ADS-B
05:48AM 51.6590 -1.5996 100° East 519 597 35,000  Level FlightAware ADS-B
05:49AM 51.6458 -1.4855 101° East 519 597 35,000  Level FlightAware ADS-B
05:49AM 51.6309 -1.3567 101° East 520 598 35,000  Level FlightAware ADS-B
05:50AM 51.6178 -1.2427 100° East 520 598 35,000  Level FlightAware ADS-B
05:50AM 51.6042 -1.1253 101° East 520 598 35,000  Level FlightAware ADS-B
05:51AM 51.5903 -1.0076 101° East 520 598 35,000  Level FlightAware ADS-B
05:51AM 51.5767 -0.8941 101° East 519 597 35,000  Level FlightAware ADS-B
05:52AM 51.5631 -0.7808 101° East 520 598 35,000  Level FlightAware ADS-B
05:52AM 51.5491 -0.6638 101° East 520 598 35,000  Level FlightAware ADS-B
05:53AM 51.5350 -0.5504 101° East 520 598 35,000  Level FlightAware ADS-B
05:53AM 51.5207 -0.4331 101° East 520 598 35,000  Level FlightAware ADS-B
05:54AM 51.5062 -0.3165 101° East 520 598 35,000  Level FlightAware ADS-B
05:54AM 51.4918 -0.2032 101° East 520 598 35,000  Level FlightAware ADS-B
05:55AM 51.4765 -0.0788 101° East 519 597 35,000  Level FlightAware ADS-B
05:55AM 51.4614 0.0378 102° East 519 597 35,000  Level FlightAware ADS-B
05:56AM 51.4469 0.1504 102° East 519 597 35,000  Level FlightAware ADS-B
05:56AM 51.4317 0.2669 102° East 519 597 35,000  Level FlightAware ADS-B
05:57AM 51.4076 0.4510 102° East 518 596 35,000  Level FlightAware ADS-B
05:58AM 51.3923 0.5668 102° East 518 596 35,000  Level FlightAware ADS-B
05:58AM 51.3772 0.6792 102° East 518 596 35,000  Level FlightAware ADS-B
05:59AM 51.3618 0.7950 102° East 518 596 35,000  Level FlightAware ADS-B
05:59AM 51.3463 0.9105 102° East 518 596 35,000  Level FlightAware ADS-B
06:00AM 51.3307 1.0226 103° East 518 596 35,000  Level FlightAware ADS-B
06:00AM 51.3142 1.1455 103° East 490 564 35,000  Level FlightAware UK
06:00AM 51.3150 1.1380 103° East 517 595 35,000  Level FlightAware
06:01AM 51.2985 1.2570 103° East 488 562 35,000  Level FlightAware UK
06:01AM 51.2960 1.2720 103° East 516 594 35,000  Level FlightAware
06:01AM 51.2799 1.3916 103° East 488 562 35,000  Level FlightAware UK
06:01AM 51.2790 1.3940 103° East 515 593 35,000  Level FlightAware
06:02AM 51.2610 1.5200 103° East 514 592 35,000  Level FlightAware
06:03AM 51.2400 1.6560 104° East 513 590 35,000  Level FlightAware
06:03AM 51.2220 1.7620 105° East 513 590 35,000  Level FlightAware
06:04AM 51.1990 1.8930 106° East 512 589 35,000  Level FlightAware
06:04AM 51.1740 2.0230 107° East 512 589 35,000  Level FlightAware
06:05AM 51.1500 2.1530 106° East 512 589 35,000  Level FlightAware
06:05AM 51.1260 2.2870 106° East 512 589 35,000  Level FlightAware
06:06AM 51.0990 2.4280 107° East 512 589 35,000  Level FlightAware
06:07AM 51.0770 2.5430 107° East 512 589 35,000  Level FlightAware
06:07AM 51.0560 2.6550 107° East 512 589 35,000  Level FlightAware
06:07AM 51.0520 2.6791 107° East 488 562 35,000  Level FlightAware UK
06:08AM 51.0300 2.7910 107° East 511 588 35,000  Level FlightAware
06:08AM 51.0050 2.9200 107° East 512 589 35,000  Level FlightAware
06:09AM 50.9830 3.0390 106° East 512 589 35,000  Level FlightAware
06:09AM 50.9608 3.1527 106° East 486 559 35,000  Level FlightAware UK
06:10AM 50.9570 3.1680 106° East 512 589 35,000  Level FlightAware
06:10AM 50.9357 3.2826 106° East 488 562 35,000  Level FlightAware UK
06:10AM 50.9320 3.3010 106° East 512 589 35,000  Level FlightAware
06:11AM 50.9150 3.3860 106° East 512 589 35,000  Level FlightAware
06:11AM 50.9102 3.4114 106° East 488 562 35,000  Level FlightAware UK
06:11AM 50.8848 3.5400 106° East 488 562 35,000  Level FlightAware UK
06:11AM 50.8800 3.5610 106° East 512 589 35,000  Level FlightAware
06:12AM 50.8550 3.6860 108° East 512 589 35,000  Level FlightAware
06:12AM 50.8320 3.8040 108° East 513 590 35,000  Level FlightAware
06:13AM 50.8293 3.8186 108° East 486 559 35,000  Level FlightAware UK
06:13AM 50.8060 3.9290 108° East 514 592 35,000  Level FlightAware
06:14AM 50.7800 4.0580 108° East 515 593 35,000  Level FlightAware
06:14AM 50.7550 4.1830 107° East 515 593 35,000  Level FlightAware
06:15AM 50.7280 4.3150 108° East 516 594 35,000  Level FlightAware
06:15AM 50.7040 4.4290 108° East 516 594 35,000  Level FlightAware
06:16AM 50.6750 4.5650 109° East 515 593 35,000  Level FlightAware
06:17AM 50.6490 4.6930 108° East 516 594 35,000  Level FlightAware
06:17AM 50.6260 4.8000 109° East 515 593 35,000  Level FlightAware
06:18AM 50.5980 4.9320 108° East 515 593 35,000  Level FlightAware
06:18AM 50.5700 5.0630 109° East 515 593 35,000  Level FlightAware
06:19AM 50.5410 5.1970 109° East 514 592 35,000  Level FlightAware
06:20AM 50.5130 5.3280 109° East 514 592 35,000  Level FlightAware
06:20AM 50.4870 5.4480 109° East 514 592 35,000  Level FlightAware
06:21AM 50.4600 5.5710 109° East 515 593 35,000  Level FlightAware
06:21AM 50.4370 5.6770 109° East 515 593 35,000  Level FlightAware
06:22AM 50.4080 5.8040 110° East 515 593 35,000  Level FlightAware
06:22AM 50.3820 5.9200 109° East 516 594 35,000  Level FlightAware
06:23AM 50.3540 6.0470 109° East 516 594 35,000  Level FlightAware
06:24AM 50.3260 6.1700 110° East 517 595 35,000  Level FlightAware
06:24AM 50.2880 6.3390 109° East 517 595 35,000  Level FlightAware
06:25AM 50.2610 6.4550 110° East 518 596 35,000  Level FlightAware
06:26AM 50.2320 6.5850 109° East 518 596 35,000  Level FlightAware
06:26AM 50.2050 6.7010 110° East 517 595 35,000  Level FlightAware
06:27AM 50.1740 6.8340 110° East 517 595 35,000  Level FlightAware
06:27AM 50.1510 6.9320 110° East 518 596 35,000  Level FlightAware
06:28AM 50.1180 7.0690 111° Southeast 517 595 35,000  Level FlightAware
06:28AM 50.0880 7.1940 110° East 517 595 35,000  Level FlightAware
06:29AM 50.0600 7.3160 110° East 517 595 35,000  Level FlightAware
06:30AM 50.0290 7.4450 110° East 517 595 35,000  Level FlightAware
06:30AM 49.9990 7.5710 110° East 518 596 35,000  Level FlightAware
06:31AM 49.9720 7.6820 111° Southeast 518 596 35,000  Level FlightAware
06:31AM 49.9410 7.8080 111° Southeast 519 597 35,000  Level FlightAware
06:32AM 49.9090 7.9400 111° Southeast 517 595 35,000  Level FlightAware
06:33AM 49.8820 8.0500 111° Southeast 517 595 35,000  Level FlightAware
06:33AM 49.8510 8.1750 111° Southeast 518 596 35,000  Level FlightAware
06:34AM 49.8200 8.2990 111° Southeast 518 596 35,000  Level FlightAware
06:34AM 49.7810 8.4180 117° Southeast 520 598 35,000  Level FlightAware
06:35AM 49.7620 8.4520 131° Southeast 522 601 35,000  Level FlightAware
06:35AM 49.7340 8.4840 144° Southeast 521 600 35,000  Level FlightAware
06:35AM 49.6640 8.5410 152° Southeast 520 598 35,000  Level FlightAware
06:36AM 49.5840 8.5970 156° South 520 598 35,000  Level FlightAware
06:37AM 49.5090 8.6480 156° South 520 598 35,000  Level FlightAware
06:37AM 49.4340 8.7000 156° South 520 598 35,000  Level FlightAware
06:38AM 49.3600 8.7520 155° Southeast 521 600 35,000  Level FlightAware
06:38AM 49.2750 8.8110 156° South 521 600 35,000  Level FlightAware
06:39AM 49.1950 8.8660 156° South 522 601 35,000  Level FlightAware
06:39AM 49.1280 8.9120 156° South 522 601 35,000  Level FlightAware
06:40AM 49.0470 8.9680 156° South 523 602 35,000  Level FlightAware
06:41AM 48.9680 9.0220 156° South 523 602 35,000  Level FlightAware
06:41AM 48.8940 9.0720 156° South 523 602 35,000  Level FlightAware
06:42AM 48.8120 9.1290 155° Southeast 523 602 35,000  Level FlightAware
06:42AM 48.7350 9.1800 156° South 523 602 35,000  Level FlightAware
06:43AM 48.6640 9.2290 155° Southeast 522 601 35,000  Level FlightAware
06:44AM 48.5820 9.2790 158° South 522 601 35,000  Level FlightAware
06:44AM 48.4970 9.3270 159° South 522 601 35,000  Level FlightAware
06:45AM 48.4300 9.3710 156° South 522 601 35,000  Level FlightAware
06:45AM 48.3530 9.4380 150° Southeast 522 601 35,000  Level FlightAware
06:46AM 48.2800 9.5110 146° Southeast 521 600 35,000  Level FlightAware
06:46AM 48.2100 9.5820 146° Southeast 522 601 35,000  Level FlightAware
06:47AM 48.1410 9.6530 146° Southeast 522 601 35,000  Level FlightAware
06:48AM 48.0720 9.7230 146° Southeast 521 600 35,000  Level FlightAware
06:48AM 48.0060 9.7870 147° Southeast 521 600 35,000  Level FlightAware
06:49AM 47.9330 9.8610 146° Southeast 520 598 35,000  Level FlightAware
06:49AM 47.8650 9.9280 147° Southeast 520 598 35,000  Level FlightAware
06:50AM 47.7880 10.0030 147° Southeast 518 596 35,000  Level FlightAware
06:51AM 47.7250 10.0660 146° Southeast 518 596 35,000  Level FlightAware
06:51AM 47.6560 10.1320 147° Southeast 518 596 35,000  Level FlightAware
06:52AM 47.5760 10.2100 147° Southeast 518 596 35,000  Level FlightAware
06:52AM 47.5150 10.2710 146° Southeast 518 596 35,000  Level FlightAware
06:53AM 47.4580 10.3250 147° Southeast 517 595 35,000  Level FlightAware
06:53AM 47.3830 10.3970 147° Southeast 517 595 35,000  Level FlightAware
06:54AM 47.3020 10.4760 147° Southeast 518 596 35,000  Level FlightAware
06:55AM 47.2190 10.5550 147° Southeast 518 596 35,000  Level FlightAware
06:55AM 47.1500 10.6220 147° Southeast 518 596 35,000  Level FlightAware
06:56AM 47.0810 10.6920 145° Southeast 517 595 35,000  Level FlightAware
06:56AM 47.0170 10.7720 140° Southeast 514 592 35,000  Level FlightAware
06:57AM 46.9610 10.8610 133° Southeast 513 590 35,000  Level FlightAware
06:58AM 46.8990 10.9570 133° Southeast 512 589 35,000  Level FlightAware
06:58AM 46.8510 11.0330 133° Southeast 511 588 35,000  Level FlightAware
06:59AM 46.7920 11.1260 133° Southeast 511 588 35,000  Level FlightAware
06:59AM 46.7350 11.2140 133° Southeast 510 587 35,000  Level FlightAware
07:00AM 46.6800 11.2990 133° Southeast 511 588 35,000  Level FlightAware
07:01AM 46.6180 11.3910 134° Southeast 511 588 35,000  Level FlightAware
07:01AM 46.5640 11.4760 133° Southeast 511 588 35,000  Level FlightAware
07:02AM 46.5050 11.5650 134° Southeast 511 588 35,000  Level FlightAware
07:02AM 46.4540 11.6420 134° Southeast 511 588 35,000  Level FlightAware
07:03AM 46.3910 11.7390 133° Southeast 511 588 35,000  Level FlightAware
07:04AM 46.3240 11.8400 134° Southeast 512 589 35,000  Level FlightAware
07:04AM 46.2670 11.9270 133° Southeast 512 589 35,000  Level FlightAware
07:05AM 46.2070 12.0160 134° Southeast 512 589 35,000  Level FlightAware
07:05AM 46.1600 12.0870 134° Southeast 512 589 35,000  Level FlightAware
07:06AM 46.0920 12.1870 134° Southeast 512 589 35,000  Level FlightAware
07:07AM 46.0370 12.2680 134° Southeast 513 590 35,000  Level FlightAware
07:07AM 45.9710 12.3660 134° Southeast 513 590 35,000  Level FlightAware
07:08AM 45.9160 12.4470 134° Southeast 513 590 35,000  Level FlightAware
07:08AM 45.8520 12.5420 134° Southeast 512 589 35,000  Level FlightAware
07:09AM 45.7990 12.6280 131° Southeast 505 581 35,000  Level FlightAware
07:10AM 45.7480 12.7200 128° Southeast 503 579 35,000  Level FlightAware
07:10AM 45.6950 12.8150 129° Southeast 501 577 35,000  Level FlightAware
07:11AM 45.6450 12.9070 128° Southeast 501 577 35,000  Level FlightAware
07:11AM 45.6200 12.9540 127° Southeast 501 577 35,000  Level FlightAware
07:12AM 45.5590 13.0650 128° Southeast 501 577 35,000  Level FlightAware
07:12AM 45.5020 13.1680 128° Southeast 501 577 35,000  Level FlightAware
07:13AM 45.4530 13.2570 128° Southeast 502 578 35,000  Level FlightAware
07:14AM 45.3960 13.3630 127° Southeast 503 579 35,000 120 Level FlightAware
07:14AM 45.3460 13.4520 129° Southeast 505 581 35,200 720 Climbing FlightAware
07:15AM 45.3000 13.5330 129° Southeast 512 589 35,800 1,080 Climbing FlightAware
07:15AM 45.2450 13.6300 129° Southeast 512 589 36,500 960 Climbing FlightAware
07:16AM 45.1900 13.7260 129° Southeast 513 590 37,000 420 Climbing FlightAware
07:17AM 45.1380 13.8210 128° Southeast 510 587 37,000  Level FlightAware
07:17AM 45.0880 13.9180 126° Southeast 503 579 37,000  Level FlightAware
07:18AM 45.0290 14.0260 128° Southeast 507 583 37,000  Level FlightAware
07:18AM 44.9800 14.1180 127° Southeast 506 582 37,000  Level FlightAware
07:19AM 44.9310 14.2070 128° Southeast 506 582 37,000  Level FlightAware
07:20AM 44.8840 14.2940 127° Southeast 506 582 37,000  Level FlightAware
07:20AM 44.8250 14.4030 127° Southeast 505 581 37,000  Level FlightAware
07:21AM 44.7760 14.4910 128° Southeast 505 581 37,000  Level FlightAware
07:21AM 44.7260 14.5820 128° Southeast 505 581 37,000  Level FlightAware
07:22AM 44.6740 14.6760 128° Southeast 507 583 37,000  Level FlightAware
07:23AM 44.6020 14.8050 128° Southeast 503 579 37,000  Level FlightAware
07:23AM 44.5520 14.8940 128° Southeast 503 579 37,000  Level FlightAware
07:24AM 44.4910 15.0060 127° Southeast 505 581 37,000  Level FlightAware
07:25AM 44.4210 15.1300 128° Southeast 505 581 37,000  Level FlightAware
07:25AM 44.3730 15.2160 128° Southeast 512 589 37,000  Level FlightAware
07:26AM 44.3080 15.3300 129° Southeast 507 583 37,000  Level FlightAware
07:27AM 44.2570 15.4210 128° Southeast 506 582 37,000  Level FlightAware
07:27AM 44.2070 15.5090 128° Southeast 506 582 37,000  Level FlightAware
07:28AM 44.1540 15.6010 129° Southeast 505 581 37,000  Level FlightAware
07:28AM 44.1020 15.6930 128° Southeast 503 579 37,000  Level FlightAware
07:29AM 44.0490 15.7850 129° Southeast 501 577 37,000  Level FlightAware
07:30AM 43.9980 15.8740 129° Southeast 501 577 37,000  Level FlightAware
07:30AM 43.9480 15.9600 129° Southeast 502 578 37,000  Level FlightAware
07:31AM 43.8960 16.0490 129° Southeast 503 579 37,000  Level FlightAware
07:31AM 43.8450 16.1380 128° Southeast 509 586 37,000  Level FlightAware
07:32AM 43.7910 16.2320 128° Southeast 510 587 37,000  Level FlightAware
07:33AM 43.7420 16.3130 130° Southeast 511 588 37,000  Level FlightAware
07:33AM 43.6870 16.4070 129° Southeast 511 588 37,000  Level FlightAware
07:34AM 43.6350 16.4960 129° Southeast 510 587 37,000  Level FlightAware
07:34AM 43.5800 16.5890 129° Southeast 508 585 37,000  Level FlightAware
07:35AM 43.5360 16.6640 129° Southeast 508 585 37,000  Level FlightAware
07:35AM 43.4810 16.7570 129° Southeast 508 585 37,000  Level FlightAware
07:36AM 43.4220 16.8570 129° Southeast 506 582 37,000  Level FlightAware
07:37AM 43.3780 16.9290 130° Southeast 505 581 37,000  Level FlightAware
07:37AM 43.3220 17.0230 129° Southeast 504 580 37,000  Level FlightAware
07:38AM 43.2730 17.1050 129° Southeast 503 579 37,000  Level FlightAware
07:38AM 43.2130 17.2030 130° Southeast 503 579 37,000  Level FlightAware
07:39AM 43.1690 17.2770 129° Southeast 503 579 37,000  Level FlightAware
07:40AM 43.1130 17.3700 129° Southeast 504 580 37,000  Level FlightAware
07:40AM 43.0650 17.4490 130° Southeast 504 580 37,000  Level FlightAware
07:41AM 43.0100 17.5390 130° Southeast 503 579 37,000  Level FlightAware
07:41AM 42.9550 17.6290 130° Southeast 504 580 37,000  Level FlightAware
07:42AM 42.9010 17.7170 130° Southeast 503 579 37,000  Level FlightAware
07:42AM 42.8530 17.7950 130° Southeast 503 579 37,000  Level FlightAware
07:43AM 42.8000 17.8820 130° Southeast 503 579 37,000  Level FlightAware
07:44AM 42.7460 17.9670 131° Southeast 503 579 37,000  Level FlightAware
07:44AM 42.6910 18.0560 130° Southeast 503 579 37,000  Level FlightAware
07:45AM 42.6240 18.1650 130° Southeast 504 580 37,000  Level FlightAware
07:46AM 42.5600 18.2660 131° Southeast 505 581 37,000  Level FlightAware
07:46AM 42.5020 18.3460 135° Southeast 506 582 37,000  Level FlightAware
07:47AM 42.4500 18.4180 134° Southeast 505 581 37,000  Level FlightAware
07:48AM 42.3820 18.5070 136° Southeast 505 581 37,000  Level FlightAware
07:48AM 42.3300 18.5780 135° Southeast 504 580 37,000  Level FlightAware
07:49AM 42.2680 18.6620 135° Southeast 504 580 37,000  Level FlightAware
07:49AM 42.2060 18.7440 136° Southeast 504 580 37,000  Level FlightAware
07:50AM 42.1520 18.8150 136° Southeast 504 580 37,000  Level FlightAware
07:51AM 42.0800 18.9120 135° Southeast 504 580 37,000  Level FlightAware
07:51AM 42.0200 18.9910 136° Southeast 503 579 37,000  Level FlightAware
07:52AM 41.9670 19.0610 136° Southeast 504 580 37,000  Level FlightAware
07:52AM 41.9070 19.1410 135° Southeast 505 581 37,000  Level FlightAware
07:53AM 41.8520 19.2130 136° Southeast 505 581 37,000  Level FlightAware
07:54AM 41.7850 19.2970 137° Southeast 505 581 37,000  Level FlightAware
07:54AM 41.7340 19.3650 135° Southeast 504 580 37,000  Level FlightAware
07:55AM 41.6760 19.4380 137° Southeast 504 580 37,000  Level FlightAware
07:55AM 41.6110 19.5220 136° Southeast 504 580 37,000  Level FlightAware
07:56AM 41.5580 19.5910 136° Southeast 505 581 37,000  Level FlightAware
07:56AM 41.4930 19.6730 137° Southeast 505 581 37,000  Level FlightAware
07:57AM 41.4310 19.7510 137° Southeast 507 583 37,000  Level FlightAware
07:58AM 41.3780 19.8200 136° Southeast 507 583 37,000  Level FlightAware
07:58AM 41.3170 19.8980 136° Southeast 508 585 37,000  Level FlightAware
07:59AM 41.2590 19.9710 137° Southeast 507 583 37,000  Level FlightAware
07:59AM 41.2010 20.0440 137° Southeast 507 583 37,000  Level FlightAware
08:00AM 41.1390 20.1210 137° Southeast 507 583 37,000  Level FlightAware
08:00AM 41.0770 20.2000 136° Southeast 505 581 37,000  Level FlightAware
08:01AM 41.0210 20.2670 138° Southeast 504 580 37,000  Level FlightAware
08:02AM 40.9570 20.3500 136° Southeast 502 578 37,000  Level FlightAware
08:02AM 40.9060 20.4130 137° Southeast 501 577 37,000  Level FlightAware
08:03AM 40.8430 20.4900 137° Southeast 500 575 37,000  Level FlightAware
08:03AM 40.7800 20.5680 137° Southeast 499 574 37,000  Level FlightAware
08:04AM 40.7270 20.6340 137° Southeast 499 574 37,000  Level FlightAware
08:05AM 40.6650 20.7090 137° Southeast 499 574 37,000  Level FlightAware
08:05AM 40.6090 20.7800 136° Southeast 498 573 37,000  Level FlightAware
08:06AM 40.5480 20.8540 137° Southeast 497 572 37,000  Level FlightAware
08:06AM 40.4900 20.9260 137° Southeast 497 572 37,000  Level FlightAware
08:07AM 40.4300 20.9980 138° Southeast 498 573 37,000  Level FlightAware
08:07AM 40.3670 21.0740 137° Southeast 498 573 37,000  Level FlightAware
08:08AM 40.3060 21.1480 137° Southeast 499 574 37,000  Level FlightAware
08:09AM 40.2530 21.2140 136° Southeast 501 577 37,000  Level FlightAware
08:09AM 40.1930 21.2840 138° Southeast 504 580 37,000  Level FlightAware
08:10AM 40.1300 21.3600 137° Southeast 505 581 37,000  Level FlightAware
08:10AM 40.0730 21.4290 137° Southeast 507 583 37,000  Level FlightAware
08:11AM 40.0250 21.4870 137° Southeast 507 583 37,000  Level FlightAware
08:12AM 39.9500 21.5760 138° Southeast 507 583 37,000  Level FlightAware
08:12AM 39.8930 21.6440 138° Southeast 507 583 37,000  Level FlightAware
08:13AM 39.8310 21.7180 137° Southeast 508 585 37,000  Level FlightAware
08:13AM 39.7690 21.7900 138° Southeast 509 586 37,000  Level FlightAware
08:14AM 39.7130 21.8580 137° Southeast 511 588 37,000  Level FlightAware
08:14AM 39.6480 21.9330 138° Southeast 512 589 37,000  Level FlightAware
08:15AM 39.5860 22.0070 137° Southeast 513 590 37,000  Level FlightAware
08:16AM 39.5220 22.0820 138° Southeast 516 594 37,000  Level FlightAware
08:16AM 39.4630 22.1500 138° Southeast 518 596 37,000  Level FlightAware
08:17AM 39.4020 22.2230 137° Southeast 519 597 37,000  Level FlightAware
08:17AM 39.3350 22.3000 138° Southeast 520 598 37,000  Level FlightAware
08:18AM 39.2770 22.3690 137° Southeast 520 598 37,000  Level FlightAware
08:18AM 39.2160 22.4390 138° Southeast 521 600 37,000  Level FlightAware
08:19AM 39.1510 22.5140 138° Southeast 523 602 37,000  Level FlightAware
08:20AM 39.0870 22.5870 138° Southeast 521 600 37,000  Level FlightAware
08:20AM 39.0250 22.6590 138° Southeast 521 600 37,000  Level FlightAware
08:21AM 38.9610 22.7310 139° Southeast 521 600 37,000  Level FlightAware
08:21AM 38.8990 22.8040 137° Southeast 520 598 37,000  Level FlightAware
08:22AM 38.8350 22.8770 138° Southeast 519 597 37,000  Level FlightAware
08:23AM 38.7760 22.9450 138° Southeast 517 595 37,000  Level FlightAware
08:23AM 38.7080 23.0200 139° Southeast 514 592 37,000  Level FlightAware
08:24AM 38.6480 23.0880 138° Southeast 514 592 37,000  Level FlightAware
08:24AM 38.5820 23.1630 138° Southeast 515 593 37,000  Level FlightAware
08:25AM 38.5250 23.2270 139° Southeast 515 593 37,000  Level FlightAware
08:26AM 38.4610 23.3000 138° Southeast 516 594 37,000  Level FlightAware
08:26AM 38.3940 23.3740 139° Southeast 517 595 37,000  Level FlightAware
08:27AM 38.3350 23.4410 138° Southeast 518 596 37,000  Level FlightAware
08:27AM 38.2710 23.5110 139° Southeast 517 595 37,000  Level FlightAware
08:28AM 38.2090 23.5810 138° Southeast 516 594 37,000  Level FlightAware
08:28AM 38.1490 23.6470 139° Southeast 513 590 37,000  Level FlightAware
08:29AM 38.0800 23.7240 139° Southeast 512 589 37,000  Level FlightAware
08:30AM 38.0210 23.7990 135° Southeast 524 603 37,000  Level FlightAware
08:30AM 37.9750 23.8750 128° Southeast 529 609 37,000  Level FlightAware
08:31AM 37.9270 23.9690 123° Southeast 532 612 37,000  Level FlightAware
08:31AM 37.8820 24.0590 122° Southeast 532 612 37,000  Level FlightAware
08:32AM 37.8230 24.1770 122° Southeast 533 613 37,000  Level FlightAware
08:33AM 37.7790 24.2630 123° Southeast 532 612 37,000  Level FlightAware
08:33AM 37.7300 24.3570 123° Southeast 531 611 37,000  Level FlightAware
08:34AM 37.6820 24.4510 123° Southeast 531 611 37,000  Level FlightAware
08:34AM 37.6350 24.5410 123° Southeast 531 611 37,000  Level FlightAware
08:35AM 37.5920 24.6250 123° Southeast 531 611 37,000  Level FlightAware
08:36AM 37.5440 24.7180 123° Southeast 531 611 37,000  Level FlightAware
08:36AM 37.4960 24.8110 123° Southeast 529 609 37,000  Level FlightAware
08:37AM 37.4480 24.9030 123° Southeast 529 609 37,000  Level FlightAware
08:37AM 37.4040 24.9860 124° Southeast 530 610 37,000  Level FlightAware
08:38AM 37.3570 25.0760 123° Southeast 530 610 37,000  Level FlightAware
08:39AM 37.3060 25.1740 123° Southeast 531 611 37,000  Level FlightAware
08:39AM 37.2630 25.2540 124° Southeast 531 611 37,000  Level FlightAware
08:40AM 37.2120 25.3510 123° Southeast 531 611 37,000  Level FlightAware
08:40AM 37.1640 25.4440 123° Southeast 531 611 37,000  Level FlightAware
08:41AM 37.1200 25.5260 124° Southeast 533 613 37,000  Level FlightAware
08:41AM 37.0700 25.6210 123° Southeast 534 615 37,000  Level FlightAware
08:42AM 37.0210 25.7110 124° Southeast 533 613 37,000  Level FlightAware
08:43AM 36.9750 25.7980 123° Southeast 533 613 37,000  Level FlightAware
08:43AM 36.9260 25.8910 123° Southeast 533 613 37,000  Level FlightAware
08:44AM 36.8790 25.9770 124° Southeast 531 611 37,000  Level FlightAware
08:44AM 36.8290 26.0690 124° Southeast 531 611 37,000  Level FlightAware
08:45AM 36.7800 26.1610 124° Southeast 531 611 37,000  Level FlightAware
08:45AM 36.7300 26.2520 124° Southeast 530 610 37,000  Level FlightAware
08:46AM 36.6810 26.3430 124° Southeast 530 610 37,000  Level FlightAware
08:47AM 36.6380 26.4210 124° Southeast 530 610 37,000  Level FlightAware
08:47AM 36.5890 26.5120 124° Southeast 530 610 37,000  Level FlightAware
08:48AM 36.5370 26.6080 124° Southeast 529 609 37,000  Level FlightAware
08:48AM 36.4940 26.6850 125° Southeast 528 608 37,000  Level FlightAware
08:49AM 36.4450 26.7760 124° Southeast 527 606 37,000  Level FlightAware
08:50AM 36.3950 26.8650 125° Southeast 528 608 37,000  Level FlightAware
08:50AM 36.3270 26.9890 124° Southeast 528 608 37,000  Level FlightAware
08:51AM 36.2850 27.0660 124° Southeast 528 608 37,000  Level FlightAware
08:52AM 36.2440 27.1430 123° Southeast 528 608 37,000  Level FlightAware
08:53AM 36.1520 27.3040 125° Southeast 527 606 37,000  Level FlightAware
08:53AM 36.1110 27.3800 124° Southeast 527 606 37,000  Level FlightAware
08:54AM 36.0690 27.4570 124° Southeast 527 606 37,000  Level FlightAware
08:54AM 36.0250 27.5380 124° Southeast 527 606 37,000  Level FlightAware
08:55AM 35.9830 27.6140 124° Southeast 527 606 37,000  Level FlightAware
08:56AM 35.9410 27.6910 124° Southeast 527 606 37,000  Level FlightAware
08:56AM 35.8270 27.8820 126° Southeast 517 595 37,000  Level FlightAware
08:57AM 35.7750 27.9770 124° Southeast 517 595 37,000  Level FlightAware
08:58AM 35.7000 28.1030 126° Southeast 519 597 37,000  Level FlightAware
08:59AM 35.6530 28.1820 126° Southeast 519 597 37,000  Level FlightAware
08:59AM 35.6030 28.2710 125° Southeast 518 596 37,000  Level FlightAware
09:00AM 35.5540 28.3560 125° Southeast 518 596 37,000  Level FlightAware
09:00AM 35.5090 28.4350 125° Southeast 518 596 37,000  Level FlightAware
09:01AM 35.4580 28.5210 126° Southeast 518 596 37,000  Level FlightAware
09:01AM 35.4090 28.6050 126° Southeast 517 595 37,000  Level FlightAware
09:02AM 35.3590 28.6930 125° Southeast 517 595 37,000  Level FlightAware
09:03AM 35.3140 28.7700 126° Southeast 516 594 37,000  Level FlightAware
09:03AM 35.2620 28.8570 126° Southeast 516 594 37,000  Level FlightAware
09:04AM 35.2200 28.9290 126° Southeast 516 594 37,000  Level FlightAware
09:05AM 35.1540 29.0450 125° Southeast 511 588 37,000  Level FlightAware
09:05AM 35.1010 29.1320 127° Southeast 510 587 37,000  Level FlightAware
09:06AM 35.0300 29.2550 125° Southeast 510 587 37,000  Level FlightAware
09:07AM 34.9760 29.3440 127° Southeast 509 586 37,000  Level FlightAware
09:07AM 34.9310 29.4220 125° Southeast 509 586 37,000  Level FlightAware
09:08AM 34.8670 29.5270 127° Southeast 590 679 37,000  Level FlightAware
09:09AM 34.8180 29.6090 126° Southeast 508 585 37,000  Level FlightAware
09:09AM 34.7700 29.6900 126° Southeast 508 585 37,000  Level FlightAware
09:10AM 34.7110 29.7880 126° Southeast 507 583 37,000  Level FlightAware
09:10AM 34.6630 29.8670 126° Southeast 507 583 37,000  Level FlightAware
09:11AM 34.6310 29.9230 125° Southeast 507 583 37,000  Level FlightAware
09:12AM 34.5800 30.0080 126° Southeast 506 582 37,000  Level FlightAware
09:12AM 34.5190 30.1340 120° Southeast 516 594 37,000  Level FlightAware
09:13AM 34.4770 30.2210 120° Southeast 516 594 37,000  Level FlightAware
09:13AM 34.4350 30.3090 120° Southeast 516 594 37,000  Level FlightAware
09:14AM 34.3970 30.3890 120° Southeast 515 593 37,000  Level FlightAware
09:15AM 34.3560 30.4740 120° Southeast 515 593 37,000  Level FlightAware
09:15AM 34.3090 30.5710 120° Southeast 514 592 37,000  Level FlightAware
09:16AM 34.2720 30.6480 120° Southeast 515 593 37,000  Level FlightAware
09:16AM 34.2250 30.7440 121° Southeast 515 593 37,000  Level FlightAware
09:17AM 34.1850 30.8260 121° Southeast 514 592 37,000  Level FlightAware
09:17AM 34.1400 30.9180 121° Southeast 515 593 37,000  Level FlightAware
09:18AM 34.0990 31.0020 120° Southeast 515 593 37,000  Level FlightAware
09:19AM 34.0570 31.0880 121° Southeast 515 593 37,000  Level FlightAware
09:19AM 34.0150 31.1750 120° Southeast 515 593 37,000  Level FlightAware
09:20AM 33.9720 31.2610 121° Southeast 514 592 37,000  Level FlightAware
09:20AM 33.9280 31.3500 121° Southeast 514 592 37,000  Level FlightAware
09:21AM 33.8850 31.4360 121° Southeast 513 590 37,000  Level FlightAware
09:22AM 33.8420 31.5240 120° Southeast 513 590 37,000  Level FlightAware
09:22AM 33.8020 31.6050 121° Southeast 512 589 37,000  Level FlightAware
09:23AM 33.7510 31.7080 121° Southeast 508 585 37,000  Level FlightAware
09:23AM 33.7030 31.8030 121° Southeast 508 585 37,000  Level FlightAware
09:24AM 33.6660 31.8760 121° Southeast 508 585 37,000  Level FlightAware
09:25AM 33.6220 31.9630 121° Southeast 508 585 37,000  Level FlightAware
09:25AM 33.5800 32.0490 120° Southeast 506 582 37,000  Level FlightAware
09:26AM 33.5410 32.1260 121° Southeast 507 583 37,000  Level FlightAware
09:26AM 33.5010 32.2060 121° Southeast 506 582 37,000  Level FlightAware
09:27AM 33.4480 32.3070 122° Southeast 506 582 37,000  Level FlightAware
09:28AM 33.4050 32.3920 121° Southeast 506 582 37,000 -600 Level FlightAware
09:28AM 33.3620 32.4790 121° Southeast 508 585 36,300 -1,440 Descending FlightAware
09:29AM 33.3220 32.5560 122° Southeast 511 588 35,400 -1,680 Descending FlightAware
09:29AM 33.2710 32.6560 121° Southeast 504 580 34,200 -1,680 Descending FlightAware
09:30AM 33.2340 32.7290 121° Southeast 495 570 33,300 -1,740 Descending FlightAware
09:31AM 33.1810 32.8320 122° Southeast 477 549 32,000 -1,980 Descending FlightAware
09:31AM 33.1400 32.9120 121° Southeast 467 537 30,800 -1,980 Descending FlightAware
09:32AM 33.1070 32.9750 122° Southeast 460 529 29,800 -2,040 Descending FlightAware
09:32AM 33.0640 33.0580 122° Southeast 452 520 28,500 -1,980 Descending FlightAware
09:33AM 33.0280 33.1290 121° Southeast 440 506 27,400 -2,160 Descending FlightAware
09:34AM 32.9800 33.2180 123° Southeast 432 497 25,800 -1,680 Descending FlightAware
09:34AM 32.9370 33.3050 120° Southeast 430 495 25,100 -1,980 Descending FlightAware
09:35AM 32.9020 33.3690 123° Southeast 409 471 23,300 -2,580 Descending FlightAware
09:36AM 32.8620 33.4460 122° Southeast 426 490 22,100 -1,980 Descending FlightAware
09:36AM 32.8270 33.5140 121° Southeast 430 495 21,000 -1,920 Descending FlightAware
09:37AM 32.7900 33.5850 122° Southeast 416 479 19,900 -1,800 Descending FlightAware
09:37AM 32.7520 33.6570 122° Southeast 400 460 18,800 -1,800 Descending FlightAware
09:38AM 32.7190 33.7190 122° Southeast 387 445 17,800 -1,800 Descending FlightAware
09:39AM 32.6790 33.7940 122° Southeast 401 461 16,600 -1,800 Descending FlightAware
09:39AM 32.6460 33.8570 122° Southeast 398 458 15,600 -1,740 Descending FlightAware
09:40AM 32.6120 33.9200 123° Southeast 411 473 14,600 -1,800 Descending FlightAware
09:40AM 32.5760 33.9890 122° Southeast 412 474 13,500 -1,860 Descending FlightAware
09:41AM 32.5380 34.0600 122° Southeast 399 459 12,400 -1,860 Descending FlightAware
09:42AM 32.5070 34.1200 121° Southeast 383 441 11,400 -2,220 Descending FlightAware
09:42AM 32.4720 34.1750 127° Southeast 382 440 10,000 -2,040 Descending FlightAware
09:42AM 32.4450 34.2080 134° Southeast 373 429 9,500 -1,380 Descending FlightAware
09:43AM 32.4250 34.2330 133° Southeast 374 430 9,100 -1,200 Descending FlightAware
09:43AM 32.3880 34.2740 137° Southeast 374 430 8,500 -960 Descending FlightAware
09:44AM 32.3630 34.3030 136° Southeast 368 423 8,300 -1,080 Descending FlightAware
09:44AM 32.3370 34.3350 134° Southeast 353 406 7,800 -1,200 Descending FlightAware
09:44AM 32.3150 34.3610 135° Southeast 342 394 7,500 -960 Descending FlightAware
09:45AM 32.2900 34.3900 136° Southeast 330 380 7,100 -1,080 Descending FlightAware
09:45AM 32.2670 34.4170 135° Southeast 319 367 6,700 -1,080 Descending FlightAware
09:45AM 32.2510 34.4350 136° Southeast 310 357 6,500 -900 Descending FlightAware
09:46AM 32.2200 34.4790 130° Southeast 298 343 6,000 -900 Descending FlightAware
09:46AM 32.2070 34.5050 121° Southeast 287 330 5,700 -1,020 Descending FlightAware
09:47AM 32.1840 34.5480 122° Southeast 280 322 5,100 -660 Descending FlightAware
09:47AM 32.1690 34.5780 121° Southeast 277 319 5,100  Level FlightAware
09:47AM 32.1590 34.5960 123° Southeast 274 315 5,100  Level FlightAware
09:48AM 32.1460 34.6230 120° Southeast 274 315 5,100  Level FlightAware
09:48AM 32.1310 34.6480 125° Southeast 276 318 5,100  Level FlightAware
09:48AM 32.1210 34.6680 121° Southeast 269 310 5,100  Level FlightAware
09:49AM 32.1050 34.6960 124° Southeast 246 283 5,100  Level FlightAware
09:49AM 32.0920 34.7180 125° Southeast 233 268 5,100  Level FlightAware
09:49AM 32.0850 34.7320 121° Southeast 234 269 5,100  Level FlightAware
09:50AM 32.0700 34.7600 122° Southeast 234 269 5,100  Level FlightAware
09:50AM 32.0580 34.7780 128° Southeast 231 266 5,100 -420 Level FlightAware
09:51AM 32.0340 34.8040 137° Southeast 231 266 4,800 -480 Descending FlightAware
09:51AM 32.0180 34.8230 135° Southeast 225 259 4,700 -420 Descending FlightAware
09:51AM 32.0020 34.8410 136° Southeast 210 242 4,500 -960 Descending FlightAware
09:52AM 31.9910 34.8540 135° Southeast 211 243 4,100 -1,560 Descending FlightAware
09:52AM 31.9730 34.8820 127° Southeast 214 246 3,300 -1,500 Descending FlightAware
09:52AM 31.9730 34.8900 90° East 210 242 3,200 -840 Descending FlightAware
09:53AM 31.9760 34.9100 80° East 192 221 2,900 -960 Descending FlightAware
09:53AM 31.9830 34.9390 74° East 180 207 2,400 -1,200 Descending FlightAware
09:53AM 31.9880 34.9550 70° East 177 204 2,100 -960 Descending FlightAware
09:53AM 31.9930 34.9600 40° Northeast 171 197 2,000 -780 Descending FlightAware
09:53AM 31.9970 34.9630 32° Northeast 169 194 1,900 -1,500 Descending FlightAware
09:54AM 32.0030 34.9640 North 165 190 1,700 -1,140 Descending FlightAware
09:54AM 32.0190 34.9560 337° Northwest 159 183 1,300 -1,020 Descending FlightAware
09:54AM 32.0240 34.9420 293° West 156 180 1,000 -900 Descending FlightAware
09:55AM 32.0230 34.9260 266° West 153 176 800 -660 Descending FlightAware
09:55AM 32.0200 34.9050 260° West 157 181 500 -480 Descending FlightAware
09:56AM 32.0150 34.8750 259° West 157 181 300 -300 Descending FlightAware